Cascade Spirit — C6BQ5 — position and weather

sailwx.info

Track history (hours):
 
Tides and Currents Weather Stations Pressure Air Temp Water Temp Dewpoint Dewpoint Depression Visibility Wind Speed Wind Dir Waves Ship Positions

Cascade Spirit

Last reported at 2018-Feb-14 07:36 UTC. Time now 2018-Feb-19 06:19 UTC.
Position S 05°25' E 010°54'.

Length 275 m; draft 14.7 m.

Type: Tanker. MMSI: 311000335.

Date/timePositionNaut miles runAvg speedWind from/ knotsBaromVisibWave heightAir tempDewpointWater temp
2018-Feb-14 07:36S 05°25' E 010°54'112.9
2018-Feb-14 07:30S 05°24' E 010°55'812.9
2018-Feb-14 06:55S 05°19' E 011°00'612.9
2018-Feb-14 06:29S 05°15' E 011°05'612.9
2018-Feb-14 06:00S 05°11' E 011°09'612.5
2018-Feb-14 05:30S 05°07' E 011°14'612.7
2018-Feb-14 05:00S 05°05' E 011°20'812.9
2018-Feb-14 04:24S 05°03' E 011°27'511.7
2018-Feb-14 04:00S 04°59' E 011°30'  
2018-Feb-08 15:30S 05°10' E 011°04'  
Track history (hours):
 
Tides and Currents Weather Stations Pressure Air Temp Water Temp Dewpoint Dewpoint Depression Visibility Wind Speed Wind Dir Waves Ship Positions

Cascade Spirit

Last reported at 2018-Feb-14 07:36 UTC. Time now 2018-Feb-19 06:19 UTC.
Position S 05°25' E 010°54'.

Length 275 m; draft 14.7 m.

Type: Tanker. MMSI: 311000335.

Date/timePositionNaut miles runAvg speedWind from/ knotsBaromVisibWave heightAir tempDewpointWater temp
2018-Feb-14 07:36S 05°25' E 010°54'112.9
2018-Feb-14 07:30S 05°24' E 010°55'812.9
2018-Feb-14 06:55S 05°19' E 011°00'612.9
2018-Feb-14 06:29S 05°15' E 011°05'612.9
2018-Feb-14 06:00S 05°11' E 011°09'612.5
2018-Feb-14 05:30S 05°07' E 011°14'612.7
2018-Feb-14 05:00S 05°05' E 011°20'812.9
2018-Feb-14 04:24S 05°03' E 011°27'511.7
2018-Feb-14 04:00S 04°59' E 011°30'  
2018-Feb-08 15:30S 05°10' E 011°04'  

Dump ship's entire track history